sensor_id;sensor_type;location;lat;lon;timestamp;P1;durP1;ratioP1;P2;durP2;ratioP2
83556;SDS011;73523;55.740;13.276;2023-12-20T00:02:08;2.30;;;0.90;;
83556;SDS011;73523;55.740;13.276;2023-12-20T00:04:33;1.47;;;0.50;;
83556;SDS011;73523;55.740;13.276;2023-12-20T00:06:58;1.57;;;0.67;;
83556;SDS011;73523;55.740;13.276;2023-12-20T00:09:24;1.83;;;0.67;;
83556;SDS011;73523;55.740;13.276;2023-12-20T00:11:49;2.20;;;0.83;;
83556;SDS011;73523;55.740;13.276;2023-12-20T00:14:14;2.20;;;0.70;;
83556;SDS011;73523;55.740;13.276;2023-12-20T00:16:40;3.50;;;0.80;;
83556;SDS011;73523;55.740;13.276;2023-12-20T00:19:05;2.33;;;0.80;;
83556;SDS011;73523;55.740;13.276;2023-12-20T00:21:30;1.67;;;0.63;;
83556;SDS011;73523;55.740;13.276;2023-12-20T00:23:55;1.90;;;0.70;;
83556;SDS011;73523;55.740;13.276;2023-12-20T00:26:21;1.63;;;0.60;;
83556;SDS011;73523;55.740;13.276;2023-12-20T00:28:46;2.33;;;0.67;;
83556;SDS011;73523;55.740;13.276;2023-12-20T00:31:11;1.67;;;0.50;;
83556;SDS011;73523;55.740;13.276;2023-12-20T00:33:37;1.90;;;0.70;;
83556;SDS011;73523;55.740;13.276;2023-12-20T00:36:02;2.60;;;0.80;;
83556;SDS011;73523;55.740;13.276;2023-12-20T00:38:28;1.83;;;0.70;;
83556;SDS011;73523;55.740;13.276;2023-12-20T00:40:53;2.23;;;0.83;;
83556;SDS011;73523;55.740;13.276;2023-12-20T00:43:18;1.90;;;0.60;;
83556;SDS011;73523;55.740;13.276;2023-12-20T00:45:44;3.38;;;0.50;;
83556;SDS011;73523;55.740;13.276;2023-12-20T00:48:09;1.30;;;0.60;;
83556;SDS011;73523;55.740;13.276;2023-12-20T00:50:34;2.70;;;0.70;;
83556;SDS011;73523;55.740;13.276;2023-12-20T00:53:00;1.53;;;0.63;;
83556;SDS011;73523;55.740;13.276;2023-12-20T00:55:25;1.17;;;0.50;;
83556;SDS011;73523;55.740;13.276;2023-12-20T00:57:50;2.15;;;0.63;;
83556;SDS011;73523;55.740;13.276;2023-12-20T01:00:16;2.00;;;0.60;;
83556;SDS011;73523;55.740;13.276;2023-12-20T01:02:41;0.98;;;0.50;;
83556;SDS011;73523;55.740;13.276;2023-12-20T01:05:06;2.03;;;0.67;;
83556;SDS011;73523;55.740;13.276;2023-12-20T01:07:34;1.92;;;0.70;;
83556;SDS011;73523;55.740;13.276;2023-12-20T01:09:59;1.30;;;0.50;;
83556;SDS011;73523;55.740;13.276;2023-12-20T01:12:24;1.90;;;0.50;;
83556;SDS011;73523;55.740;13.276;2023-12-20T01:14:50;2.00;;;0.60;;
83556;SDS011;73523;55.740;13.276;2023-12-20T01:17:15;1.40;;;0.60;;
83556;SDS011;73523;55.740;13.276;2023-12-20T01:19:40;1.43;;;0.57;;
83556;SDS011;73523;55.740;13.276;2023-12-20T01:22:06;0.82;;;0.40;;
83556;SDS011;73523;55.740;13.276;2023-12-20T01:24:31;1.73;;;0.50;;
83556;SDS011;73523;55.740;13.276;2023-12-20T01:26:57;1.50;;;0.60;;
83556;SDS011;73523;55.740;13.276;2023-12-20T01:29:22;2.63;;;0.90;;
83556;SDS011;73523;55.740;13.276;2023-12-20T01:31:47;1.58;;;0.55;;
83556;SDS011;73523;55.740;13.276;2023-12-20T01:34:13;1.20;;;0.60;;
83556;SDS011;73523;55.740;13.276;2023-12-20T01:36:38;1.70;;;0.73;;
83556;SDS011;73523;55.740;13.276;2023-12-20T01:39:03;1.25;;;0.50;;
83556;SDS011;73523;55.740;13.276;2023-12-20T01:41:29;1.07;;;0.50;;
83556;SDS011;73523;55.740;13.276;2023-12-20T01:43:54;2.00;;;0.50;;
83556;SDS011;73523;55.740;13.276;2023-12-20T01:46:20;1.67;;;0.73;;
83556;SDS011;73523;55.740;13.276;2023-12-20T01:48:46;1.40;;;0.70;;
83556;SDS011;73523;55.740;13.276;2023-12-20T01:51:12;1.13;;;0.50;;
83556;SDS011;73523;55.740;13.276;2023-12-20T01:53:38;1.87;;;0.60;;
83556;SDS011;73523;55.740;13.276;2023-12-20T01:56:04;1.92;;;0.60;;
83556;SDS011;73523;55.740;13.276;2023-12-20T01:58:30;2.10;;;0.60;;
83556;SDS011;73523;55.740;13.276;2023-12-20T02:00:56;1.48;;;0.63;;
83556;SDS011;73523;55.740;13.276;2023-12-20T02:03:22;1.23;;;0.55;;
83556;SDS011;73523;55.740;13.276;2023-12-20T02:05:47;1.10;;;0.40;;
83556;SDS011;73523;55.740;13.276;2023-12-20T02:08:13;1.70;;;0.50;;
83556;SDS011;73523;55.740;13.276;2023-12-20T02:10:38;1.83;;;0.40;;
83556;SDS011;73523;55.740;13.276;2023-12-20T02:13:05;1.30;;;0.50;;
83556;SDS011;73523;55.740;13.276;2023-12-20T02:15:31;1.60;;;0.60;;
83556;SDS011;73523;55.740;13.276;2023-12-20T02:17:56;2.05;;;0.60;;
83556;SDS011;73523;55.740;13.276;2023-12-20T02:20:22;1.13;;;0.50;;
83556;SDS011;73523;55.740;13.276;2023-12-20T02:22:47;1.48;;;0.40;;
83556;SDS011;73523;55.740;13.276;2023-12-20T02:25:13;2.80;;;0.60;;
83556;SDS011;73523;55.740;13.276;2023-12-20T02:27:38;1.15;;;0.50;;
83556;SDS011;73523;55.740;13.276;2023-12-20T02:30:04;2.05;;;0.60;;
83556;SDS011;73523;55.740;13.276;2023-12-20T02:32:31;2.20;;;0.68;;
83556;SDS011;73523;55.740;13.276;2023-12-20T02:34:57;1.07;;;0.50;;
83556;SDS011;73523;55.740;13.276;2023-12-20T02:37:22;1.20;;;0.50;;
83556;SDS011;73523;55.740;13.276;2023-12-20T02:39:48;0.80;;;0.40;;
83556;SDS011;73523;55.740;13.276;2023-12-20T02:42:13;2.40;;;0.50;;
83556;SDS011;73523;55.740;13.276;2023-12-20T02:44:38;1.37;;;0.53;;
83556;SDS011;73523;55.740;13.276;2023-12-20T02:47:04;1.47;;;0.50;;
83556;SDS011;73523;55.740;13.276;2023-12-20T02:49:29;2.10;;;0.60;;
83556;SDS011;73523;55.740;13.276;2023-12-20T02:51:55;1.80;;;0.50;;
83556;SDS011;73523;55.740;13.276;2023-12-20T02:54:20;1.13;;;0.40;;
83556;SDS011;73523;55.740;13.276;2023-12-20T02:56:46;1.48;;;0.50;;
83556;SDS011;73523;55.740;13.276;2023-12-20T02:59:11;0.80;;;0.30;;
83556;SDS011;73523;55.740;13.276;2023-12-20T03:01:43;1.90;;;0.60;;
83556;SDS011;73523;55.740;13.276;2023-12-20T03:04:10;1.42;;;0.70;;
83556;SDS011;73523;55.740;13.276;2023-12-20T03:06:36;1.20;;;0.50;;
83556;SDS011;73523;55.740;13.276;2023-12-20T03:09:01;1.20;;;0.50;;
83556;SDS011;73523;55.740;13.276;2023-12-20T03:11:26;1.40;;;0.47;;
83556;SDS011;73523;55.740;13.276;2023-12-20T03:13:53;0.93;;;0.30;;
83556;SDS011;73523;55.740;13.276;2023-12-20T03:16:18;1.93;;;0.50;;
83556;SDS011;73523;55.740;13.276;2023-12-20T03:18:43;1.80;;;0.50;;
83556;SDS011;73523;55.740;13.276;2023-12-20T03:21:09;0.80;;;0.30;;
83556;SDS011;73523;55.740;13.276;2023-12-20T03:23:34;1.43;;;0.57;;
83556;SDS011;73523;55.740;13.276;2023-12-20T03:25:59;1.52;;;0.40;;
83556;SDS011;73523;55.740;13.276;2023-12-20T03:28:25;2.10;;;0.60;;
83556;SDS011;73523;55.740;13.276;2023-12-20T03:30:51;1.77;;;0.50;;
83556;SDS011;73523;55.740;13.276;2023-12-20T03:33:17;1.50;;;0.40;;
83556;SDS011;73523;55.740;13.276;2023-12-20T03:35:42;1.33;;;0.50;;
83556;SDS011;73523;55.740;13.276;2023-12-20T03:38:07;2.07;;;0.40;;
83556;SDS011;73523;55.740;13.276;2023-12-20T03:40:33;1.80;;;0.50;;
83556;SDS011;73523;55.740;13.276;2023-12-20T03:42:58;1.47;;;0.50;;
83556;SDS011;73523;55.740;13.276;2023-12-20T03:45:24;1.70;;;0.40;;
83556;SDS011;73523;55.740;13.276;2023-12-20T03:47:49;2.05;;;0.47;;
83556;SDS011;73523;55.740;13.276;2023-12-20T03:50:15;1.43;;;0.50;;
83556;SDS011;73523;55.740;13.276;2023-12-20T03:52:40;1.42;;;0.47;;
83556;SDS011;73523;55.740;13.276;2023-12-20T03:55:06;1.37;;;0.50;;
83556;SDS011;73523;55.740;13.276;2023-12-20T03:57:31;1.27;;;0.50;;
83556;SDS011;73523;55.740;13.276;2023-12-20T03:59:56;1.33;;;0.50;;
83556;SDS011;73523;55.740;13.276;2023-12-20T04:02:22;0.95;;;0.43;;
83556;SDS011;73523;55.740;13.276;2023-12-20T04:04:47;1.27;;;0.30;;
83556;SDS011;73523;55.740;13.276;2023-12-20T04:07:12;0.97;;;0.40;;
83556;SDS011;73523;55.740;13.276;2023-12-20T04:09:37;1.77;;;0.47;;
83556;SDS011;73523;55.740;13.276;2023-12-20T04:12:03;1.90;;;0.57;;
83556;SDS011;73523;55.740;13.276;2023-12-20T04:14:30;1.23;;;0.40;;
83556;SDS011;73523;55.740;13.276;2023-12-20T04:16:55;1.30;;;0.60;;
83556;SDS011;73523;55.740;13.276;2023-12-20T04:19:20;0.90;;;0.33;;
83556;SDS011;73523;55.740;13.276;2023-12-20T04:21:45;1.77;;;0.50;;
83556;SDS011;73523;55.740;13.276;2023-12-20T04:24:11;1.47;;;0.40;;
83556;SDS011;73523;55.740;13.276;2023-12-20T04:26:36;2.20;;;0.45;;
83556;SDS011;73523;55.740;13.276;2023-12-20T04:29:01;1.27;;;0.50;;
83556;SDS011;73523;55.740;13.276;2023-12-20T04:31:27;1.00;;;0.43;;
83556;SDS011;73523;55.740;13.276;2023-12-20T04:33:52;1.77;;;0.50;;
83556;SDS011;73523;55.740;13.276;2023-12-20T04:36:17;1.97;;;0.50;;
83556;SDS011;73523;55.740;13.276;2023-12-20T04:38:43;1.25;;;0.43;;
83556;SDS011;73523;55.740;13.276;2023-12-20T04:41:08;1.57;;;0.50;;
83556;SDS011;73523;55.740;13.276;2023-12-20T04:43:33;1.37;;;0.47;;
83556;SDS011;73523;55.740;13.276;2023-12-20T04:45:59;1.83;;;0.80;;
83556;SDS011;73523;55.740;13.276;2023-12-20T04:48:24;2.07;;;0.60;;
83556;SDS011;73523;55.740;13.276;2023-12-20T04:50:49;2.53;;;0.50;;
83556;SDS011;73523;55.740;13.276;2023-12-20T04:53:15;1.20;;;0.47;;
83556;SDS011;73523;55.740;13.276;2023-12-20T04:55:40;1.00;;;0.40;;
83556;SDS011;73523;55.740;13.276;2023-12-20T04:58:05;1.60;;;0.40;;
83556;SDS011;73523;55.740;13.276;2023-12-20T05:00:30;6.70;;;0.77;;
83556;SDS011;73523;55.740;13.276;2023-12-20T05:02:56;1.30;;;0.43;;
83556;SDS011;73523;55.740;13.276;2023-12-20T05:05:21;1.80;;;0.40;;
83556;SDS011;73523;55.740;13.276;2023-12-20T05:07:47;1.17;;;0.33;;
83556;SDS011;73523;55.740;13.276;2023-12-20T05:10:12;4.50;;;0.70;;
83556;SDS011;73523;55.740;13.276;2023-12-20T05:12:37;1.38;;;0.47;;
83556;SDS011;73523;55.740;13.276;2023-12-20T05:15:03;2.47;;;0.60;;
83556;SDS011;73523;55.740;13.276;2023-12-20T05:17:30;2.22;;;0.60;;
83556;SDS011;73523;55.740;13.276;2023-12-20T05:19:56;2.23;;;0.33;;
83556;SDS011;73523;55.740;13.276;2023-12-20T05:22:21;2.60;;;0.50;;
83556;SDS011;73523;55.740;13.276;2023-12-20T05:24:46;1.57;;;0.50;;
83556;SDS011;73523;55.740;13.276;2023-12-20T05:27:12;1.40;;;0.40;;
83556;SDS011;73523;55.740;13.276;2023-12-20T05:29:37;15.50;;;1.03;;
83556;SDS011;73523;55.740;13.276;2023-12-20T05:32:02;6.57;;;0.93;;
83556;SDS011;73523;55.740;13.276;2023-12-20T05:34:29;2.55;;;0.57;;
83556;SDS011;73523;55.740;13.276;2023-12-20T05:36:55;9.27;;;1.05;;
83556;SDS011;73523;55.740;13.276;2023-12-20T05:39:21;9.05;;;0.80;;
83556;SDS011;73523;55.740;13.276;2023-12-20T05:41:46;7.90;;;1.00;;
83556;SDS011;73523;55.740;13.276;2023-12-20T05:44:11;4.00;;;0.90;;
83556;SDS011;73523;55.740;13.276;2023-12-20T05:46:37;7.27;;;0.70;;
83556;SDS011;73523;55.740;13.276;2023-12-20T05:49:02;7.57;;;0.80;;
83556;SDS011;73523;55.740;13.276;2023-12-20T05:51:27;3.97;;;0.90;;
83556;SDS011;73523;55.740;13.276;2023-12-20T05:53:53;8.80;;;0.73;;
83556;SDS011;73523;55.740;13.276;2023-12-20T05:56:18;5.33;;;0.70;;
83556;SDS011;73523;55.740;13.276;2023-12-20T05:58:43;9.47;;;1.00;;
83556;SDS011;73523;55.740;13.276;2023-12-20T06:01:09;6.93;;;0.80;;
83556;SDS011;73523;55.740;13.276;2023-12-20T06:03:34;5.63;;;0.80;;
83556;SDS011;73523;55.740;13.276;2023-12-20T06:06:04;4.87;;;0.83;;
83556;SDS011;73523;55.740;13.276;2023-12-20T06:08:31;3.15;;;0.60;;
83556;SDS011;73523;55.740;13.276;2023-12-20T06:10:56;5.85;;;0.63;;
83556;SDS011;73523;55.740;13.276;2023-12-20T06:13:21;3.07;;;0.90;;
83556;SDS011;73523;55.740;13.276;2023-12-20T06:15:47;4.57;;;0.60;;
83556;SDS011;73523;55.740;13.276;2023-12-20T06:18:12;5.27;;;0.80;;
83556;SDS011;73523;55.740;13.276;2023-12-20T06:20:37;4.03;;;0.57;;
83556;SDS011;73523;55.740;13.276;2023-12-20T06:23:02;4.83;;;0.80;;
83556;SDS011;73523;55.740;13.276;2023-12-20T06:25:28;5.47;;;0.70;;
83556;SDS011;73523;55.740;13.276;2023-12-20T06:27:53;5.30;;;0.80;;
83556;SDS011;73523;55.740;13.276;2023-12-20T06:30:19;6.37;;;0.63;;
83556;SDS011;73523;55.740;13.276;2023-12-20T06:32:44;4.32;;;0.80;;
83556;SDS011;73523;55.740;13.276;2023-12-20T06:35:11;5.30;;;0.63;;
83556;SDS011;73523;55.740;13.276;2023-12-20T06:37:37;5.60;;;0.70;;
83556;SDS011;73523;55.740;13.276;2023-12-20T06:40:02;2.70;;;0.67;;
83556;SDS011;73523;55.740;13.276;2023-12-20T06:42:28;3.25;;;0.85;;
83556;SDS011;73523;55.740;13.276;2023-12-20T06:44:53;4.17;;;0.90;;
83556;SDS011;73523;55.740;13.276;2023-12-20T06:47:18;2.43;;;0.60;;
83556;SDS011;73523;55.740;13.276;2023-12-20T06:49:44;2.57;;;0.57;;
83556;SDS011;73523;55.740;13.276;2023-12-20T06:52:09;4.20;;;0.80;;
83556;SDS011;73523;55.740;13.276;2023-12-20T06:54:34;2.93;;;0.60;;
83556;SDS011;73523;55.740;13.276;2023-12-20T06:57:00;3.23;;;0.63;;
83556;SDS011;73523;55.740;13.276;2023-12-20T06:59:25;3.00;;;0.60;;
83556;SDS011;73523;55.740;13.276;2023-12-20T07:01:51;2.60;;;0.60;;
83556;SDS011;73523;55.740;13.276;2023-12-20T07:04:16;2.17;;;0.65;;
83556;SDS011;73523;55.740;13.276;2023-12-20T07:06:45;3.05;;;0.80;;
83556;SDS011;73523;55.740;13.276;2023-12-20T07:09:11;2.40;;;0.50;;
83556;SDS011;73523;55.740;13.276;2023-12-20T07:11:38;3.23;;;0.70;;
83556;SDS011;73523;55.740;13.276;2023-12-20T07:14:03;3.23;;;0.70;;
83556;SDS011;73523;55.740;13.276;2023-12-20T07:16:28;1.50;;;0.50;;
83556;SDS011;73523;55.740;13.276;2023-12-20T07:18:54;2.47;;;0.60;;
83556;SDS011;73523;55.740;13.276;2023-12-20T07:21:19;1.53;;;0.60;;
83556;SDS011;73523;55.740;13.276;2023-12-20T07:23:45;2.27;;;0.60;;
83556;SDS011;73523;55.740;13.276;2023-12-20T07:26:10;2.07;;;0.50;;
83556;SDS011;73523;55.740;13.276;2023-12-20T07:28:36;1.77;;;0.60;;
83556;SDS011;73523;55.740;13.276;2023-12-20T07:31:01;3.37;;;0.50;;
83556;SDS011;73523;55.740;13.276;2023-12-20T07:33:27;4.30;;;0.90;;
83556;SDS011;73523;55.740;13.276;2023-12-20T07:35:52;2.10;;;0.50;;
83556;SDS011;73523;55.740;13.276;2023-12-20T07:38:17;2.13;;;0.50;;
83556;SDS011;73523;55.740;13.276;2023-12-20T07:40:42;1.90;;;0.63;;
83556;SDS011;73523;55.740;13.276;2023-12-20T07:43:08;2.33;;;0.53;;
83556;SDS011;73523;55.740;13.276;2023-12-20T07:45:33;1.43;;;0.40;;
83556;SDS011;73523;55.740;13.276;2023-12-20T07:47:58;3.50;;;0.50;;
83556;SDS011;73523;55.740;13.276;2023-12-20T07:50:24;1.03;;;0.40;;
83556;SDS011;73523;55.740;13.276;2023-12-20T07:52:49;1.90;;;0.50;;
83556;SDS011;73523;55.740;13.276;2023-12-20T07:55:14;1.63;;;0.60;;
83556;SDS011;73523;55.740;13.276;2023-12-20T07:57:40;1.60;;;0.40;;
83556;SDS011;73523;55.740;13.276;2023-12-20T08:00:05;3.37;;;0.70;;
83556;SDS011;73523;55.740;13.276;2023-12-20T08:02:31;3.13;;;0.45;;
83556;SDS011;73523;55.740;13.276;2023-12-20T08:04:56;1.93;;;0.50;;
83556;SDS011;73523;55.740;13.276;2023-12-20T08:07:22;1.85;;;0.50;;
83556;SDS011;73523;55.740;13.276;2023-12-20T08:09:47;1.93;;;0.50;;
83556;SDS011;73523;55.740;13.276;2023-12-20T08:12:12;3.43;;;0.50;;
83556;SDS011;73523;55.740;13.276;2023-12-20T08:14:38;2.87;;;0.50;;
83556;SDS011;73523;55.740;13.276;2023-12-20T08:17:03;2.57;;;0.50;;
83556;SDS011;73523;55.740;13.276;2023-12-20T08:19:28;1.30;;;0.40;;
83556;SDS011;73523;55.740;13.276;2023-12-20T08:21:54;1.80;;;0.53;;
83556;SDS011;73523;55.740;13.276;2023-12-20T08:24:19;1.87;;;0.50;;
83556;SDS011;73523;55.740;13.276;2023-12-20T08:26:44;1.60;;;0.67;;
83556;SDS011;73523;55.740;13.276;2023-12-20T08:29:12;2.10;;;0.45;;
83556;SDS011;73523;55.740;13.276;2023-12-20T08:31:38;1.17;;;0.40;;
83556;SDS011;73523;55.740;13.276;2023-12-20T08:34:03;1.43;;;0.43;;
83556;SDS011;73523;55.740;13.276;2023-12-20T08:36:29;2.20;;;0.40;;
83556;SDS011;73523;55.740;13.276;2023-12-20T08:38:54;1.27;;;0.40;;
83556;SDS011;73523;55.740;13.276;2023-12-20T08:41:20;1.95;;;0.60;;
83556;SDS011;73523;55.740;13.276;2023-12-20T08:43:45;2.20;;;0.40;;
83556;SDS011;73523;55.740;13.276;2023-12-20T08:46:11;3.60;;;0.32;;
83556;SDS011;73523;55.740;13.276;2023-12-20T08:48:36;1.53;;;0.40;;
83556;SDS011;73523;55.740;13.276;2023-12-20T08:51:02;2.00;;;0.60;;
83556;SDS011;73523;55.740;13.276;2023-12-20T08:53:28;2.08;;;0.40;;
83556;SDS011;73523;55.740;13.276;2023-12-20T08:55:53;1.40;;;0.60;;
83556;SDS011;73523;55.740;13.276;2023-12-20T08:58:19;1.50;;;0.50;;
83556;SDS011;73523;55.740;13.276;2023-12-20T09:00:45;1.50;;;0.50;;
83556;SDS011;73523;55.740;13.276;2023-12-20T09:03:10;0.70;;;0.22;;
83556;SDS011;73523;55.740;13.276;2023-12-20T09:05:35;1.33;;;0.40;;
83556;SDS011;73523;55.740;13.276;2023-12-20T09:08:01;0.70;;;0.30;;
83556;SDS011;73523;55.740;13.276;2023-12-20T09:10:26;1.10;;;0.40;;
83556;SDS011;73523;55.740;13.276;2023-12-20T09:12:52;1.50;;;0.40;;
83556;SDS011;73523;55.740;13.276;2023-12-20T09:15:25;1.63;;;0.30;;
83556;SDS011;73523;55.740;13.276;2023-12-20T09:17:51;1.38;;;0.45;;
83556;SDS011;73523;55.740;13.276;2023-12-20T09:20:17;2.25;;;0.40;;
83556;SDS011;73523;55.740;13.276;2023-12-20T09:22:42;2.17;;;0.47;;
83556;SDS011;73523;55.740;13.276;2023-12-20T09:25:09;1.13;;;0.30;;
83556;SDS011;73523;55.740;13.276;2023-12-20T09:27:36;1.37;;;0.30;;
83556;SDS011;73523;55.740;13.276;2023-12-20T09:30:01;1.23;;;0.40;;
83556;SDS011;73523;55.740;13.276;2023-12-20T09:32:27;2.13;;;0.38;;
83556;SDS011;73523;55.740;13.276;2023-12-20T09:34:52;1.50;;;0.40;;
83556;SDS011;73523;55.740;13.276;2023-12-20T09:37:17;1.50;;;0.50;;
83556;SDS011;73523;55.740;13.276;2023-12-20T09:39:42;1.77;;;0.50;;
83556;SDS011;73523;55.740;13.276;2023-12-20T09:42:08;1.13;;;0.30;;
83556;SDS011;73523;55.740;13.276;2023-12-20T09:44:37;1.92;;;0.40;;
83556;SDS011;73523;55.740;13.276;2023-12-20T09:47:05;2.33;;;0.50;;
83556;SDS011;73523;55.740;13.276;2023-12-20T09:49:32;1.10;;;0.30;;
83556;SDS011;73523;55.740;13.276;2023-12-20T09:51:57;0.80;;;0.30;;
83556;SDS011;73523;55.740;13.276;2023-12-20T09:54:25;1.10;;;0.30;;
83556;SDS011;73523;55.740;13.276;2023-12-20T09:56:51;1.95;;;0.32;;
83556;SDS011;73523;55.740;13.276;2023-12-20T09:59:17;1.38;;;0.30;;
83556;SDS011;73523;55.740;13.276;2023-12-20T10:01:42;1.47;;;0.50;;
83556;SDS011;73523;55.740;13.276;2023-12-20T10:04:09;1.08;;;0.30;;
83556;SDS011;73523;55.740;13.276;2023-12-20T10:06:37;1.17;;;0.40;;
83556;SDS011;73523;55.740;13.276;2023-12-20T10:09:04;1.48;;;0.57;;
83556;SDS011;73523;55.740;13.276;2023-12-20T10:11:30;1.80;;;0.40;;
83556;SDS011;73523;55.740;13.276;2023-12-20T10:13:59;1.08;;;0.38;;
83556;SDS011;73523;55.740;13.276;2023-12-20T10:16:28;1.65;;;0.50;;
83556;SDS011;73523;55.740;13.276;2023-12-20T10:18:54;1.02;;;0.43;;
83556;SDS011;73523;55.740;13.276;2023-12-20T10:21:20;1.30;;;0.50;;
83556;SDS011;73523;55.740;13.276;2023-12-20T10:23:45;1.27;;;0.30;;
83556;SDS011;73523;55.740;13.276;2023-12-20T10:26:18;0.60;;;0.20;;
83556;SDS011;73523;55.740;13.276;2023-12-20T10:28:45;1.13;;;0.30;;
83556;SDS011;73523;55.740;13.276;2023-12-20T10:31:11;0.60;;;0.30;;
83556;SDS011;73523;55.740;13.276;2023-12-20T10:33:52;1.83;;;0.47;;
83556;SDS011;73523;55.740;13.276;2023-12-20T10:36:17;1.43;;;0.50;;
83556;SDS011;73523;55.740;13.276;2023-12-20T10:38:42;1.00;;;0.30;;
83556;SDS011;73523;55.740;13.276;2023-12-20T10:41:09;0.70;;;0.30;;
83556;SDS011;73523;55.740;13.276;2023-12-20T10:43:35;1.65;;;0.50;;
83556;SDS011;73523;55.740;13.276;2023-12-20T10:46:03;1.10;;;0.40;;
83556;SDS011;73523;55.740;13.276;2023-12-20T10:48:28;1.02;;;0.40;;
83556;SDS011;73523;55.740;13.276;2023-12-20T10:50:56;1.73;;;0.30;;
83556;SDS011;73523;55.740;13.276;2023-12-20T10:53:21;2.00;;;0.40;;
83556;SDS011;73523;55.740;13.276;2023-12-20T10:55:48;1.15;;;0.25;;
83556;SDS011;73523;55.740;13.276;2023-12-20T10:58:17;1.17;;;0.40;;
83556;SDS011;73523;55.740;13.276;2023-12-20T11:00:45;1.20;;;0.30;;
83556;SDS011;73523;55.740;13.276;2023-12-20T11:03:12;0.95;;;0.20;;
83556;SDS011;73523;55.740;13.276;2023-12-20T11:08:12;0.83;;;0.27;;
83556;SDS011;73523;55.740;13.276;2023-12-20T11:10:59;1.10;;;0.40;;
83556;SDS011;73523;55.740;13.276;2023-12-20T11:13:53;0.57;;;0.30;;
83556;SDS011;73523;55.740;13.276;2023-12-20T11:16:23;1.20;;;0.40;;
83556;SDS011;73523;55.740;13.276;2023-12-20T11:18:50;0.87;;;0.30;;
83556;SDS011;73523;55.740;13.276;2023-12-20T11:21:16;1.63;;;0.50;;
83556;SDS011;73523;55.740;13.276;2023-12-20T11:23:41;1.00;;;0.30;;
83556;SDS011;73523;55.740;13.276;2023-12-20T11:26:07;0.75;;;0.45;;
83556;SDS011;73523;55.740;13.276;2023-12-20T11:28:32;1.02;;;0.30;;
83556;SDS011;73523;55.740;13.276;2023-12-20T11:30:58;0.97;;;0.50;;
83556;SDS011;73523;55.740;13.276;2023-12-20T11:33:30;1.00;;;0.40;;
83556;SDS011;73523;55.740;13.276;2023-12-20T11:36:02;1.65;;;0.43;;
83556;SDS011;73523;55.740;13.276;2023-12-20T11:38:35;1.20;;;0.40;;
83556;SDS011;73523;55.740;13.276;2023-12-20T11:41:02;1.42;;;0.40;;
83556;SDS011;73523;55.740;13.276;2023-12-20T11:43:31;0.70;;;0.20;;
83556;SDS011;73523;55.740;13.276;2023-12-20T11:46:06;1.13;;;0.40;;
83556;SDS011;73523;55.740;13.276;2023-12-20T11:48:39;0.80;;;0.40;;
83556;SDS011;73523;55.740;13.276;2023-12-20T11:51:11;0.95;;;0.30;;
83556;SDS011;73523;55.740;13.276;2023-12-20T11:53:37;0.68;;;0.30;;
83556;SDS011;73523;55.740;13.276;2023-12-20T11:56:04;0.98;;;0.30;;
83556;SDS011;73523;55.740;13.276;2023-12-20T11:58:30;1.00;;;0.30;;
83556;SDS011;73523;55.740;13.276;2023-12-20T12:00:56;0.90;;;0.30;;
83556;SDS011;73523;55.740;13.276;2023-12-20T12:03:22;1.10;;;0.40;;
83556;SDS011;73523;55.740;13.276;2023-12-20T12:05:48;1.42;;;0.40;;
83556;SDS011;73523;55.740;13.276;2023-12-20T12:08:14;1.30;;;0.30;;
83556;SDS011;73523;55.740;13.276;2023-12-20T12:10:39;0.50;;;0.20;;
83556;SDS011;73523;55.740;13.276;2023-12-20T12:13:04;1.40;;;0.40;;
83556;SDS011;73523;55.740;13.276;2023-12-20T12:15:30;0.80;;;0.30;;
83556;SDS011;73523;55.740;13.276;2023-12-20T12:17:56;1.52;;;0.40;;
83556;SDS011;73523;55.740;13.276;2023-12-20T12:20:22;1.02;;;0.30;;
83556;SDS011;73523;55.740;13.276;2023-12-20T12:22:58;0.75;;;0.20;;
83556;SDS011;73523;55.740;13.276;2023-12-20T12:25:28;1.17;;;0.40;;
83556;SDS011;73523;55.740;13.276;2023-12-20T12:27:55;0.98;;;0.30;;
83556;SDS011;73523;55.740;13.276;2023-12-20T12:30:21;2.08;;;0.30;;
83556;SDS011;73523;55.740;13.276;2023-12-20T12:32:47;1.40;;;0.40;;
83556;SDS011;73523;55.740;13.276;2023-12-20T12:35:13;0.70;;;0.20;;
83556;SDS011;73523;55.740;13.276;2023-12-20T12:37:39;0.82;;;0.30;;
83556;SDS011;73523;55.740;13.276;2023-12-20T12:40:06;1.10;;;0.30;;
83556;SDS011;73523;55.740;13.276;2023-12-20T12:42:35;0.83;;;0.20;;
83556;SDS011;73523;55.740;13.276;2023-12-20T12:45:00;0.50;;;0.20;;
83556;SDS011;73523;55.740;13.276;2023-12-20T12:47:25;0.70;;;0.30;;
83556;SDS011;73523;55.740;13.276;2023-12-20T12:49:51;0.87;;;0.20;;
83556;SDS011;73523;55.740;13.276;2023-12-20T12:52:18;0.70;;;0.30;;
83556;SDS011;73523;55.740;13.276;2023-12-20T12:54:43;0.90;;;0.30;;
83556;SDS011;73523;55.740;13.276;2023-12-20T12:57:10;1.10;;;0.40;;
83556;SDS011;73523;55.740;13.276;2023-12-20T12:59:37;0.98;;;0.30;;
83556;SDS011;73523;55.740;13.276;2023-12-20T13:02:02;1.23;;;0.30;;
83556;SDS011;73523;55.740;13.276;2023-12-20T13:04:28;1.30;;;0.40;;
83556;SDS011;73523;55.740;13.276;2023-12-20T13:06:54;0.60;;;0.20;;
83556;SDS011;73523;55.740;13.276;2023-12-20T13:09:20;0.90;;;0.40;;
83556;SDS011;73523;55.740;13.276;2023-12-20T13:11:45;0.63;;;0.23;;
83556;SDS011;73523;55.740;13.276;2023-12-20T13:14:10;0.63;;;0.30;;
83556;SDS011;73523;55.740;13.276;2023-12-20T13:16:40;1.05;;;0.50;;
83556;SDS011;73523;55.740;13.276;2023-12-20T13:19:06;1.07;;;0.40;;
83556;SDS011;73523;55.740;13.276;2023-12-20T13:21:31;1.93;;;0.30;;
83556;SDS011;73523;55.740;13.276;2023-12-20T13:23:57;3.90;;;0.50;;
83556;SDS011;73523;55.740;13.276;2023-12-20T13:26:22;2.10;;;0.40;;
83556;SDS011;73523;55.740;13.276;2023-12-20T13:28:47;2.67;;;0.40;;
83556;SDS011;73523;55.740;13.276;2023-12-20T13:31:13;1.47;;;0.40;;
83556;SDS011;73523;55.740;13.276;2023-12-20T13:33:38;0.70;;;0.20;;
83556;SDS011;73523;55.740;13.276;2023-12-20T13:36:04;1.80;;;0.35;;
83556;SDS011;73523;55.740;13.276;2023-12-20T13:38:30;1.02;;;0.30;;
83556;SDS011;73523;55.740;13.276;2023-12-20T13:40:55;1.10;;;0.40;;
83556;SDS011;73523;55.740;13.276;2023-12-20T13:43:20;1.20;;;0.30;;
83556;SDS011;73523;55.740;13.276;2023-12-20T13:45:47;1.10;;;0.30;;
83556;SDS011;73523;55.740;13.276;2023-12-20T13:48:13;0.70;;;0.20;;
83556;SDS011;73523;55.740;13.276;2023-12-20T13:50:38;1.37;;;0.40;;
83556;SDS011;73523;55.740;13.276;2023-12-20T13:53:04;1.63;;;0.30;;
83556;SDS011;73523;55.740;13.276;2023-12-20T13:55:29;1.03;;;0.30;;
83556;SDS011;73523;55.740;13.276;2023-12-20T13:57:55;1.05;;;0.25;;
83556;SDS011;73523;55.740;13.276;2023-12-20T14:00:21;0.95;;;0.25;;
83556;SDS011;73523;55.740;13.276;2023-12-20T14:02:49;0.60;;;0.10;;
83556;SDS011;73523;55.740;13.276;2023-12-20T14:05:15;1.10;;;0.37;;
83556;SDS011;73523;55.740;13.276;2023-12-20T14:07:44;1.58;;;0.32;;
83556;SDS011;73523;55.740;13.276;2023-12-20T14:10:13;0.80;;;0.30;;
83556;SDS011;73523;55.740;13.276;2023-12-20T14:12:38;0.90;;;0.20;;
83556;SDS011;73523;55.740;13.276;2023-12-20T14:15:04;0.43;;;0.23;;
83556;SDS011;73523;55.740;13.276;2023-12-20T14:17:35;1.17;;;0.30;;
83556;SDS011;73523;55.740;13.276;2023-12-20T14:20:05;1.20;;;0.30;;
83556;SDS011;73523;55.740;13.276;2023-12-20T14:22:31;0.95;;;0.30;;
83556;SDS011;73523;55.740;13.276;2023-12-20T14:24:57;1.00;;;0.30;;
83556;SDS011;73523;55.740;13.276;2023-12-20T14:27:22;0.90;;;0.30;;
83556;SDS011;73523;55.740;13.276;2023-12-20T14:29:49;0.60;;;0.30;;